sensor_id;sensor_type;location;lat;lon;timestamp;temperature;humidity
7216;DHT22;3649;48.798;9.798;2023-05-29T00:00:52;18.20;99.90
7216;DHT22;3649;48.798;9.798;2023-05-29T00:03:19;18.10;99.90
7216;DHT22;3649;48.798;9.798;2023-05-29T00:05:46;18.10;99.90
7216;DHT22;3649;48.798;9.798;2023-05-29T00:08:13;18.00;99.90
7216;DHT22;3649;48.798;9.798;2023-05-29T00:10:40;18.00;99.90
7216;DHT22;3649;48.798;9.798;2023-05-29T00:13:07;17.90;99.90
7216;DHT22;3649;48.798;9.798;2023-05-29T00:15:34;17.90;99.90
7216;DHT22;3649;48.798;9.798;2023-05-29T00:18:01;17.90;99.90
7216;DHT22;3649;48.798;9.798;2023-05-29T00:20:28;17.90;99.90
7216;DHT22;3649;48.798;9.798;2023-05-29T00:22:55;17.80;99.90
7216;DHT22;3649;48.798;9.798;2023-05-29T00:25:22;17.80;99.90
7216;DHT22;3649;48.798;9.798;2023-05-29T00:27:49;17.80;99.90
7216;DHT22;3649;48.798;9.798;2023-05-29T00:30:16;17.80;99.90
7216;DHT22;3649;48.798;9.798;2023-05-29T00:32:43;17.80;99.90
7216;DHT22;3649;48.798;9.798;2023-05-29T00:35:10;17.70;99.90
7216;DHT22;3649;48.798;9.798;2023-05-29T00:37:37;17.70;99.90
7216;DHT22;3649;48.798;9.798;2023-05-29T00:40:04;17.70;99.90
7216;DHT22;3649;48.798;9.798;2023-05-29T00:42:32;17.60;99.90
7216;DHT22;3649;48.798;9.798;2023-05-29T00:44:59;17.60;99.90
7216;DHT22;3649;48.798;9.798;2023-05-29T00:47:26;17.50;99.90
7216;DHT22;3649;48.798;9.798;2023-05-29T00:49:53;17.50;99.90
7216;DHT22;3649;48.798;9.798;2023-05-29T00:52:22;17.50;99.90
7216;DHT22;3649;48.798;9.798;2023-05-29T00:54:50;17.40;99.90
7216;DHT22;3649;48.798;9.798;2023-05-29T00:57:17;17.30;99.90
7216;DHT22;3649;48.798;9.798;2023-05-29T00:59:46;17.40;99.90
7216;DHT22;3649;48.798;9.798;2023-05-29T01:02:14;17.40;99.90
7216;DHT22;3649;48.798;9.798;2023-05-29T01:04:44;17.40;99.90
7216;DHT22;3649;48.798;9.798;2023-05-29T01:07:11;17.40;99.90
7216;DHT22;3649;48.798;9.798;2023-05-29T01:09:39;17.40;99.90
7216;DHT22;3649;48.798;9.798;2023-05-29T01:12:27;17.40;99.90
7216;DHT22;3649;48.798;9.798;2023-05-29T01:18:04;17.40;99.90
7216;DHT22;3649;48.798;9.798;2023-05-29T01:20:44;17.30;99.90
7216;DHT22;3649;48.798;9.798;2023-05-29T01:26:48;17.10;99.90
7216;DHT22;3649;48.798;9.798;2023-05-29T01:29:28;17.00;99.90
7216;DHT22;3649;48.798;9.798;2023-05-29T01:31:56;17.00;99.90
7216;DHT22;3649;48.798;9.798;2023-05-29T01:34:23;17.10;99.90
7216;DHT22;3649;48.798;9.798;2023-05-29T01:36:50;17.00;99.90
7216;DHT22;3649;48.798;9.798;2023-05-29T01:39:18;17.00;99.90
7216;DHT22;3649;48.798;9.798;2023-05-29T01:41:47;17.00;99.90
7216;DHT22;3649;48.798;9.798;2023-05-29T01:44:14;17.00;99.90
7216;DHT22;3649;48.798;9.798;2023-05-29T01:46:42;17.00;99.90
7216;DHT22;3649;48.798;9.798;2023-05-29T01:49:10;17.00;99.90
7216;DHT22;3649;48.798;9.798;2023-05-29T01:51:39;17.00;99.90
7216;DHT22;3649;48.798;9.798;2023-05-29T01:54:07;17.00;99.90
7216;DHT22;3649;48.798;9.798;2023-05-29T01:56:35;16.90;99.90
7216;DHT22;3649;48.798;9.798;2023-05-29T01:59:03;16.90;99.90
7216;DHT22;3649;48.798;9.798;2023-05-29T02:01:31;16.90;99.90
7216;DHT22;3649;48.798;9.798;2023-05-29T02:03:58;16.90;99.90
7216;DHT22;3649;48.798;9.798;2023-05-29T02:06:25;16.80;99.90
7216;DHT22;3649;48.798;9.798;2023-05-29T02:08:52;16.80;99.90
7216;DHT22;3649;48.798;9.798;2023-05-29T02:11:19;16.90;99.90
7216;DHT22;3649;48.798;9.798;2023-05-29T02:13:46;16.80;99.90
7216;DHT22;3649;48.798;9.798;2023-05-29T02:16:13;16.90;99.90
7216;DHT22;3649;48.798;9.798;2023-05-29T02:18:40;16.80;99.90
7216;DHT22;3649;48.798;9.798;2023-05-29T02:21:07;16.80;99.90
7216;DHT22;3649;48.798;9.798;2023-05-29T02:23:35;16.80;99.90
7216;DHT22;3649;48.798;9.798;2023-05-29T02:26:02;16.80;99.90
7216;DHT22;3649;48.798;9.798;2023-05-29T02:28:28;16.80;99.90
7216;DHT22;3649;48.798;9.798;2023-05-29T02:30:55;16.80;99.90
7216;DHT22;3649;48.798;9.798;2023-05-29T02:33:23;16.70;99.90
7216;DHT22;3649;48.798;9.798;2023-05-29T02:35:50;16.70;99.90
7216;DHT22;3649;48.798;9.798;2023-05-29T02:38:16;16.70;99.90
7216;DHT22;3649;48.798;9.798;2023-05-29T02:40:43;16.70;99.90
7216;DHT22;3649;48.798;9.798;2023-05-29T02:43:13;16.70;99.90
7216;DHT22;3649;48.798;9.798;2023-05-29T02:45:40;16.60;99.90
7216;DHT22;3649;48.798;9.798;2023-05-29T02:48:07;16.60;99.90
7216;DHT22;3649;48.798;9.798;2023-05-29T02:50:34;16.60;99.90
7216;DHT22;3649;48.798;9.798;2023-05-29T02:53:02;16.60;99.90
7216;DHT22;3649;48.798;9.798;2023-05-29T02:55:28;16.60;99.90
7216;DHT22;3649;48.798;9.798;2023-05-29T02:57:55;16.60;99.90
7216;DHT22;3649;48.798;9.798;2023-05-29T03:00:22;16.60;99.90
7216;DHT22;3649;48.798;9.798;2023-05-29T03:02:49;16.50;99.90
7216;DHT22;3649;48.798;9.798;2023-05-29T03:05:16;16.50;99.90
7216;DHT22;3649;48.798;9.798;2023-05-29T03:07:44;16.50;99.90
7216;DHT22;3649;48.798;9.798;2023-05-29T03:10:11;16.40;99.90
7216;DHT22;3649;48.798;9.798;2023-05-29T03:12:38;16.40;99.90
7216;DHT22;3649;48.798;9.798;2023-05-29T03:15:06;16.40;99.90
7216;DHT22;3649;48.798;9.798;2023-05-29T03:17:34;16.40;99.90
7216;DHT22;3649;48.798;9.798;2023-05-29T03:20:03;16.40;99.90
7216;DHT22;3649;48.798;9.798;2023-05-29T03:22:33;16.40;99.90
7216;DHT22;3649;48.798;9.798;2023-05-29T03:25:01;16.40;99.90
7216;DHT22;3649;48.798;9.798;2023-05-29T03:27:27;16.40;99.90
7216;DHT22;3649;48.798;9.798;2023-05-29T03:29:55;16.40;99.90
7216;DHT22;3649;48.798;9.798;2023-05-29T03:32:23;16.40;99.90
7216;DHT22;3649;48.798;9.798;2023-05-29T03:34:49;16.30;99.90
7216;DHT22;3649;48.798;9.798;2023-05-29T03:37:16;16.30;99.90
7216;DHT22;3649;48.798;9.798;2023-05-29T03:39:43;16.30;99.90
7216;DHT22;3649;48.798;9.798;2023-05-29T03:42:11;16.30;99.90
7216;DHT22;3649;48.798;9.798;2023-05-29T03:44:37;16.40;99.90
7216;DHT22;3649;48.798;9.798;2023-05-29T03:47:05;16.20;99.90
7216;DHT22;3649;48.798;9.798;2023-05-29T03:49:32;16.20;99.90
7216;DHT22;3649;48.798;9.798;2023-05-29T03:51:58;16.20;99.90
7216;DHT22;3649;48.798;9.798;2023-05-29T03:54:26;16.20;99.90
7216;DHT22;3649;48.798;9.798;2023-05-29T03:56:52;16.20;99.90
7216;DHT22;3649;48.798;9.798;2023-05-29T03:59:19;16.10;99.90
7216;DHT22;3649;48.798;9.798;2023-05-29T04:01:46;16.30;99.90
7216;DHT22;3649;48.798;9.798;2023-05-29T04:04:13;16.20;99.90
7216;DHT22;3649;48.798;9.798;2023-05-29T04:06:40;16.20;99.90
7216;DHT22;3649;48.798;9.798;2023-05-29T04:09:07;16.20;99.90
7216;DHT22;3649;48.798;9.798;2023-05-29T04:11:35;16.10;99.90
7216;DHT22;3649;48.798;9.798;2023-05-29T04:14:02;16.10;99.90
7216;DHT22;3649;48.798;9.798;2023-05-29T04:16:29;16.20;99.90
7216;DHT22;3649;48.798;9.798;2023-05-29T04:18:56;16.10;99.90
7216;DHT22;3649;48.798;9.798;2023-05-29T04:21:23;16.20;99.90
7216;DHT22;3649;48.798;9.798;2023-05-29T04:23:50;16.20;99.90
7216;DHT22;3649;48.798;9.798;2023-05-29T04:26:17;16.20;99.90
7216;DHT22;3649;48.798;9.798;2023-05-29T04:28:44;16.20;99.90
7216;DHT22;3649;48.798;9.798;2023-05-29T04:31:11;16.20;99.90
7216;DHT22;3649;48.798;9.798;2023-05-29T04:33:41;16.20;99.90
7216;DHT22;3649;48.798;9.798;2023-05-29T04:36:08;16.20;99.90
7216;DHT22;3649;48.798;9.798;2023-05-29T04:38:35;16.20;99.90
7216;DHT22;3649;48.798;9.798;2023-05-29T04:41:03;16.20;99.90
7216;DHT22;3649;48.798;9.798;2023-05-29T04:43:30;16.20;99.90
7216;DHT22;3649;48.798;9.798;2023-05-29T04:45:58;16.20;99.90
7216;DHT22;3649;48.798;9.798;2023-05-29T04:48:25;17.40;99.90
7216;DHT22;3649;48.798;9.798;2023-05-29T04:50:52;16.10;99.90
7216;DHT22;3649;48.798;9.798;2023-05-29T04:53:19;16.20;99.90
7216;DHT22;3649;48.798;9.798;2023-05-29T04:55:46;16.20;99.90
7216;DHT22;3649;48.798;9.798;2023-05-29T04:58:13;16.30;99.90
7216;DHT22;3649;48.798;9.798;2023-05-29T05:00:40;16.30;99.90
7216;DHT22;3649;48.798;9.798;2023-05-29T05:03:07;16.50;99.90
7216;DHT22;3649;48.798;9.798;2023-05-29T05:05:34;16.30;99.90
7216;DHT22;3649;48.798;9.798;2023-05-29T05:08:00;16.30;99.90
7216;DHT22;3649;48.798;9.798;2023-05-29T05:10:27;16.40;99.90
7216;DHT22;3649;48.798;9.798;2023-05-29T05:12:54;16.40;99.90
7216;DHT22;3649;48.798;9.798;2023-05-29T05:15:21;16.50;99.90
7216;DHT22;3649;48.798;9.798;2023-05-29T05:17:48;16.40;99.90
7216;DHT22;3649;48.798;9.798;2023-05-29T05:20:15;16.40;99.90
7216;DHT22;3649;48.798;9.798;2023-05-29T05:22:43;16.50;99.90
7216;DHT22;3649;48.798;9.798;2023-05-29T05:25:10;16.60;99.90
7216;DHT22;3649;48.798;9.798;2023-05-29T05:27:37;18.10;99.90
7216;DHT22;3649;48.798;9.798;2023-05-29T05:30:04;16.60;99.90
7216;DHT22;3649;48.798;9.798;2023-05-29T05:32:32;16.70;99.90
7216;DHT22;3649;48.798;9.798;2023-05-29T05:34:59;16.80;99.90
7216;DHT22;3649;48.798;9.798;2023-05-29T05:37:26;16.90;99.90
7216;DHT22;3649;48.798;9.798;2023-05-29T05:39:53;16.90;99.90
7216;DHT22;3649;48.798;9.798;2023-05-29T05:42:20;17.10;99.90
7216;DHT22;3649;48.798;9.798;2023-05-29T05:44:46;17.10;99.90
7216;DHT22;3649;48.798;9.798;2023-05-29T05:47:14;17.20;99.90
7216;DHT22;3649;48.798;9.798;2023-05-29T05:49:41;17.20;99.90
7216;DHT22;3649;48.798;9.798;2023-05-29T05:52:10;17.30;99.90
7216;DHT22;3649;48.798;9.798;2023-05-29T05:54:40;17.30;99.90
7216;DHT22;3649;48.798;9.798;2023-05-29T05:57:07;17.40;99.90
7216;DHT22;3649;48.798;9.798;2023-05-29T05:59:34;17.50;99.90
7216;DHT22;3649;48.798;9.798;2023-05-29T06:02:00;17.60;99.90
7216;DHT22;3649;48.798;9.798;2023-05-29T06:04:28;17.70;99.90
7216;DHT22;3649;48.798;9.798;2023-05-29T06:06:56;17.90;99.90
7216;DHT22;3649;48.798;9.798;2023-05-29T06:09:23;18.00;99.90
7216;DHT22;3649;48.798;9.798;2023-05-29T06:11:51;18.10;99.90
7216;DHT22;3649;48.798;9.798;2023-05-29T06:14:17;18.30;99.90
7216;DHT22;3649;48.798;9.798;2023-05-29T06:16:44;18.40;99.90
7216;DHT22;3649;48.798;9.798;2023-05-29T06:19:12;18.50;99.90
7216;DHT22;3649;48.798;9.798;2023-05-29T06:21:39;18.70;99.90
7216;DHT22;3649;48.798;9.798;2023-05-29T06:24:06;18.80;99.90
7216;DHT22;3649;48.798;9.798;2023-05-29T06:26:33;18.90;99.90
7216;DHT22;3649;48.798;9.798;2023-05-29T06:29:00;19.10;99.90
7216;DHT22;3649;48.798;9.798;2023-05-29T06:31:27;19.20;99.90
7216;DHT22;3649;48.798;9.798;2023-05-29T06:33:55;19.20;99.90
7216;DHT22;3649;48.798;9.798;2023-05-29T06:36:23;19.30;99.90
7216;DHT22;3649;48.798;9.798;2023-05-29T06:38:50;19.40;99.90
7216;DHT22;3649;48.798;9.798;2023-05-29T06:41:18;19.50;99.90
7216;DHT22;3649;48.798;9.798;2023-05-29T06:43:44;19.60;99.90
7216;DHT22;3649;48.798;9.798;2023-05-29T06:46:12;19.80;99.90
7216;DHT22;3649;48.798;9.798;2023-05-29T06:48:39;20.00;99.90
7216;DHT22;3649;48.798;9.798;2023-05-29T06:51:05;20.30;99.90
7216;DHT22;3649;48.798;9.798;2023-05-29T06:53:35;20.50;99.90
7216;DHT22;3649;48.798;9.798;2023-05-29T06:56:03;20.70;99.90
7216;DHT22;3649;48.798;9.798;2023-05-29T06:58:30;21.00;99.90
7216;DHT22;3649;48.798;9.798;2023-05-29T07:00:58;21.20;99.90
7216;DHT22;3649;48.798;9.798;2023-05-29T07:03:29;21.50;99.90
7216;DHT22;3649;48.798;9.798;2023-05-29T07:05:56;21.70;99.90
7216;DHT22;3649;48.798;9.798;2023-05-29T07:08:24;21.90;99.90
7216;DHT22;3649;48.798;9.798;2023-05-29T07:10:51;22.00;99.80
7216;DHT22;3649;48.798;9.798;2023-05-29T07:13:18;22.10;99.60
7216;DHT22;3649;48.798;9.798;2023-05-29T07:15:45;22.30;99.30
7216;DHT22;3649;48.798;9.798;2023-05-29T07:18:12;22.30;98.90
7216;DHT22;3649;48.798;9.798;2023-05-29T07:20:41;22.40;98.80
7216;DHT22;3649;48.798;9.798;2023-05-29T07:23:08;22.50;98.60
7216;DHT22;3649;48.798;9.798;2023-05-29T07:25:35;22.60;98.30
7216;DHT22;3649;48.798;9.798;2023-05-29T07:28:02;22.60;97.90
7216;DHT22;3649;48.798;9.798;2023-05-29T07:30:46;22.60;98.00
7216;DHT22;3649;48.798;9.798;2023-05-29T07:33:13;22.60;98.10
7216;DHT22;3649;48.798;9.798;2023-05-29T07:35:40;22.60;98.00
7216;DHT22;3649;48.798;9.798;2023-05-29T07:38:07;22.70;98.00
7216;DHT22;3649;48.798;9.798;2023-05-29T07:40:34;22.80;97.90
7216;DHT22;3649;48.798;9.798;2023-05-29T07:43:01;22.90;97.80
7216;DHT22;3649;48.798;9.798;2023-05-29T07:45:28;22.90;97.40
7216;DHT22;3649;48.798;9.798;2023-05-29T07:47:55;23.00;97.10
7216;DHT22;3649;48.798;9.798;2023-05-29T07:50:22;23.00;97.10
7216;DHT22;3649;48.798;9.798;2023-05-29T07:52:49;23.20;97.20
7216;DHT22;3649;48.798;9.798;2023-05-29T07:55:16;23.30;97.10
7216;DHT22;3649;48.798;9.798;2023-05-29T07:57:43;23.40;97.10
7216;DHT22;3649;48.798;9.798;2023-05-29T08:00:10;23.50;97.10
7216;DHT22;3649;48.798;9.798;2023-05-29T08:02:40;23.50;97.00
7216;DHT22;3649;48.798;9.798;2023-05-29T08:05:09;23.60;97.00
7216;DHT22;3649;48.798;9.798;2023-05-29T08:07:36;23.60;97.00
7216;DHT22;3649;48.798;9.798;2023-05-29T08:10:04;23.60;96.90
7216;DHT22;3649;48.798;9.798;2023-05-29T08:12:32;23.60;97.00
7216;DHT22;3649;48.798;9.798;2023-05-29T08:15:02;23.70;96.90
7216;DHT22;3649;48.798;9.798;2023-05-29T08:17:29;23.70;96.70
7216;DHT22;3649;48.798;9.798;2023-05-29T08:19:56;23.70;96.70
7216;DHT22;3649;48.798;9.798;2023-05-29T08:22:28;23.70;96.70
7216;DHT22;3649;48.798;9.798;2023-05-29T08:24:56;23.70;96.80
7216;DHT22;3649;48.798;9.798;2023-05-29T08:27:23;23.60;96.70
7216;DHT22;3649;48.798;9.798;2023-05-29T08:29:50;23.90;96.90
7216;DHT22;3649;48.798;9.798;2023-05-29T08:32:17;23.70;96.70
7216;DHT22;3649;48.798;9.798;2023-05-29T08:34:44;23.80;96.80
7216;DHT22;3649;48.798;9.798;2023-05-29T08:37:12;23.80;96.80
7216;DHT22;3649;48.798;9.798;2023-05-29T08:39:39;23.90;96.60
7216;DHT22;3649;48.798;9.798;2023-05-29T08:42:13;24.00;96.20
7216;DHT22;3649;48.798;9.798;2023-05-29T08:44:47;24.00;96.30
7216;DHT22;3649;48.798;9.798;2023-05-29T08:47:17;24.00;96.10
7216;DHT22;3649;48.798;9.798;2023-05-29T08:49:52;24.00;95.80
7216;DHT22;3649;48.798;9.798;2023-05-29T08:52:22;24.00;95.90
7216;DHT22;3649;48.798;9.798;2023-05-29T08:54:49;24.00;95.70
7216;DHT22;3649;48.798;9.798;2023-05-29T08:57:17;24.00;94.50
7216;DHT22;3649;48.798;9.798;2023-05-29T08:59:44;23.90;94.50
7216;DHT22;3649;48.798;9.798;2023-05-29T09:02:13;23.90;94.50
7216;DHT22;3649;48.798;9.798;2023-05-29T09:04:42;24.00;94.20
7216;DHT22;3649;48.798;9.798;2023-05-29T09:07:12;24.00;94.40
7216;DHT22;3649;48.798;9.798;2023-05-29T09:09:39;24.10;94.20
7216;DHT22;3649;48.798;9.798;2023-05-29T09:12:06;24.10;94.20
7216;DHT22;3649;48.798;9.798;2023-05-29T09:14:36;24.00;93.80
7216;DHT22;3649;48.798;9.798;2023-05-29T09:17:04;24.00;93.90
7216;DHT22;3649;48.798;9.798;2023-05-29T09:19:32;23.90;93.70
7216;DHT22;3649;48.798;9.798;2023-05-29T09:22:07;23.90;94.10
7216;DHT22;3649;48.798;9.798;2023-05-29T09:24:35;23.90;94.20
7216;DHT22;3649;48.798;9.798;2023-05-29T09:27:05;23.90;94.30
7216;DHT22;3649;48.798;9.798;2023-05-29T09:29:38;23.90;94.20
7216;DHT22;3649;48.798;9.798;2023-05-29T09:32:10;23.90;93.80
7216;DHT22;3649;48.798;9.798;2023-05-29T09:34:37;24.00;94.30
7216;DHT22;3649;48.798;9.798;2023-05-29T09:37:06;23.90;93.40
7216;DHT22;3649;48.798;9.798;2023-05-29T09:39:45;23.90;93.40
7216;DHT22;3649;48.798;9.798;2023-05-29T09:42:16;23.90;93.70
7216;DHT22;3649;48.798;9.798;2023-05-29T09:44:46;23.90;93.80
7216;DHT22;3649;48.798;9.798;2023-05-29T09:47:16;23.90;93.50
7216;DHT22;3649;48.798;9.798;2023-05-29T09:49:45;23.90;93.70
7216;DHT22;3649;48.798;9.798;2023-05-29T09:52:21;23.90;93.50
7216;DHT22;3649;48.798;9.798;2023-05-29T09:54:50;23.90;93.60
7216;DHT22;3649;48.798;9.798;2023-05-29T09:57:17;23.80;93.40
7216;DHT22;3649;48.798;9.798;2023-05-29T09:59:45;23.80;93.50
7216;DHT22;3649;48.798;9.798;2023-05-29T10:02:14;23.90;93.00
7216;DHT22;3649;48.798;9.798;2023-05-29T10:04:42;23.90;93.00
7216;DHT22;3649;48.798;9.798;2023-05-29T10:07:20;23.90;92.70
7216;DHT22;3649;48.798;9.798;2023-05-29T10:09:57;23.90;92.30
7216;DHT22;3649;48.798;9.798;2023-05-29T10:12:26;23.80;92.50
7216;DHT22;3649;48.798;9.798;2023-05-29T10:14:59;23.80;91.90
7216;DHT22;3649;48.798;9.798;2023-05-29T10:17:30;23.80;91.80
7216;DHT22;3649;48.798;9.798;2023-05-29T10:20:01;23.80;91.90
7216;DHT22;3649;48.798;9.798;2023-05-29T10:22:31;23.80;92.00
7216;DHT22;3649;48.798;9.798;2023-05-29T10:24:59;23.70;91.30
7216;DHT22;3649;48.798;9.798;2023-05-29T10:27:27;23.80;91.30
7216;DHT22;3649;48.798;9.798;2023-05-29T10:30:00;23.90;91.00
7216;DHT22;3649;48.798;9.798;2023-05-29T10:33:00;23.90;91.60
7216;DHT22;3649;48.798;9.798;2023-05-29T10:38:17;23.90;91.40
7216;DHT22;3649;48.798;9.798;2023-05-29T10:40:45;25.10;91.20
7216;DHT22;3649;48.798;9.798;2023-05-29T10:43:33;23.80;90.70
7216;DHT22;3649;48.798;9.798;2023-05-29T10:46:01;23.80;91.00
7216;DHT22;3649;48.798;9.798;2023-05-29T10:48:36;23.80;88.50
7216;DHT22;3649;48.798;9.798;2023-05-29T10:51:05;23.80;89.00
7216;DHT22;3649;48.798;9.798;2023-05-29T10:53:33;23.80;90.00
7216;DHT22;3649;48.798;9.798;2023-05-29T10:56:01;23.80;90.10
7216;DHT22;3649;48.798;9.798;2023-05-29T10:58:30;23.80;90.20
7216;DHT22;3649;48.798;9.798;2023-05-29T11:00:56;23.70;90.60
7216;DHT22;3649;48.798;9.798;2023-05-29T11:03:30;23.70;90.80
7216;DHT22;3649;48.798;9.798;2023-05-29T11:06:17;23.80;90.50
7216;DHT22;3649;48.798;9.798;2023-05-29T11:08:46;23.80;90.00
7216;DHT22;3649;48.798;9.798;2023-05-29T11:13:57;23.80;91.00
7216;DHT22;3649;48.798;9.798;2023-05-29T11:18:58;23.80;91.00
7216;DHT22;3649;48.798;9.798;2023-05-29T11:21:51;23.70;91.10
7216;DHT22;3649;48.798;9.798;2023-05-29T11:24:24;23.80;91.50
7216;DHT22;3649;48.798;9.798;2023-05-29T11:26:56;23.80;91.50
7216;DHT22;3649;48.798;9.798;2023-05-29T11:29:24;23.90;91.60
7216;DHT22;3649;48.798;9.798;2023-05-29T11:32:05;23.90;91.20
7216;DHT22;3649;48.798;9.798;2023-05-29T11:34:32;24.00;91.20
7216;DHT22;3649;48.798;9.798;2023-05-29T11:37:03;24.00;91.20
7216;DHT22;3649;48.798;9.798;2023-05-29T11:39:31;23.90;90.80
7216;DHT22;3649;48.798;9.798;2023-05-29T11:42:00;23.90;90.70
7216;DHT22;3649;48.798;9.798;2023-05-29T11:44:27;24.00;90.40
7216;DHT22;3649;48.798;9.798;2023-05-29T11:47:04;24.00;90.40
7216;DHT22;3649;48.798;9.798;2023-05-29T11:49:33;24.00;90.20
7216;DHT22;3649;48.798;9.798;2023-05-29T11:52:10;24.00;89.60
7216;DHT22;3649;48.798;9.798;2023-05-29T11:54:43;24.00;89.50
7216;DHT22;3649;48.798;9.798;2023-05-29T11:57:19;24.00;89.90
7216;DHT22;3649;48.798;9.798;2023-05-29T11:59:47;24.10;90.20
7216;DHT22;3649;48.798;9.798;2023-05-29T12:02:16;24.10;90.50
7216;DHT22;3649;48.798;9.798;2023-05-29T12:04:43;24.10;89.60
7216;DHT22;3649;48.798;9.798;2023-05-29T12:07:19;24.00;88.20
7216;DHT22;3649;48.798;9.798;2023-05-29T12:09:46;24.10;87.40
7216;DHT22;3649;48.798;9.798;2023-05-29T12:12:15;24.10;86.20
7216;DHT22;3649;48.798;9.798;2023-05-29T12:14:42;24.10;86.50
7216;DHT22;3649;48.798;9.798;2023-05-29T12:17:09;24.10;87.10
7216;DHT22;3649;48.798;9.798;2023-05-29T12:19:36;24.10;87.20
7216;DHT22;3649;48.798;9.798;2023-05-29T12:22:03;24.10;88.40
7216;DHT22;3649;48.798;9.798;2023-05-29T12:24:30;24.10;89.10
7216;DHT22;3649;48.798;9.798;2023-05-29T12:27:09;24.20;88.30
7216;DHT22;3649;48.798;9.798;2023-05-29T12:29:36;24.20;87.00
7216;DHT22;3649;48.798;9.798;2023-05-29T12:32:03;24.30;87.30
7216;DHT22;3649;48.798;9.798;2023-05-29T12:34:36;24.30;87.80
7216;DHT22;3649;48.798;9.798;2023-05-29T12:37:10;24.30;88.10
7216;DHT22;3649;48.798;9.798;2023-05-29T12:39:40;24.30;87.30
7216;DHT22;3649;48.798;9.798;2023-05-29T12:42:07;24.30;88.10
7216;DHT22;3649;48.798;9.798;2023-05-29T12:44:37;24.30;88.40
7216;DHT22;3649;48.798;9.798;2023-05-29T12:47:05;24.30;88.60
7216;DHT22;3649;48.798;9.798;2023-05-29T12:49:36;24.30;88.00
7216;DHT22;3649;48.798;9.798;2023-05-29T12:52:08;24.30;88.60
7216;DHT22;3649;48.798;9.798;2023-05-29T12:54:36;24.30;89.00
7216;DHT22;3649;48.798;9.798;2023-05-29T12:57:03;24.40;88.60
7216;DHT22;3649;48.798;9.798;2023-05-29T12:59:30;24.30;89.30
7216;DHT22;3649;48.798;9.798;2023-05-29T13:01:57;24.30;89.50
7216;DHT22;3649;48.798;9.798;2023-05-29T13:04:24;24.30;89.80
7216;DHT22;3649;48.798;9.798;2023-05-29T13:06:51;24.40;87.80
7216;DHT22;3649;48.798;9.798;2023-05-29T13:09:18;24.40;86.70
7216;DHT22;3649;48.798;9.798;2023-05-29T13:11:44;24.50;85.50
7216;DHT22;3649;48.798;9.798;2023-05-29T13:14:11;24.50;86.30
7216;DHT22;3649;48.798;9.798;2023-05-29T13:16:38;24.50;86.50
7216;DHT22;3649;48.798;9.798;2023-05-29T13:19:05;24.50;86.30
7216;DHT22;3649;48.798;9.798;2023-05-29T13:21:33;24.60;85.70
7216;DHT22;3649;48.798;9.798;2023-05-29T13:23:59;24.60;85.10
7216;DHT22;3649;48.798;9.798;2023-05-29T13:26:27;24.60;85.80
7216;DHT22;3649;48.798;9.798;2023-05-29T13:28:54;24.60;85.50
7216;DHT22;3649;48.798;9.798;2023-05-29T13:31:21;24.60;84.30
7216;DHT22;3649;48.798;9.798;2023-05-29T13:33:48;24.70;84.40
7216;DHT22;3649;48.798;9.798;2023-05-29T13:36:15;24.70;85.50
7216;DHT22;3649;48.798;9.798;2023-05-29T13:38:41;24.70;85.60
7216;DHT22;3649;48.798;9.798;2023-05-29T13:41:10;24.70;85.30
7216;DHT22;3649;48.798;9.798;2023-05-29T13:43:37;24.70;85.20
7216;DHT22;3649;48.798;9.798;2023-05-29T13:46:11;24.80;84.40
7216;DHT22;3649;48.798;9.798;2023-05-29T13:48:38;24.80;84.00
7216;DHT22;3649;48.798;9.798;2023-05-29T13:51:05;24.80;82.10
7216;DHT22;3649;48.798;9.798;2023-05-29T13:53:32;24.80;83.60
7216;DHT22;3649;48.798;9.798;2023-05-29T13:55:59;24.80;83.60
7216;DHT22;3649;48.798;9.798;2023-05-29T13:58:26;24.80;83.90
7216;DHT22;3649;48.798;9.798;2023-05-29T14:00:53;24.80;82.20
7216;DHT22;3649;48.798;9.798;2023-05-29T14:03:21;24.90;80.90
7216;DHT22;3649;48.798;9.798;2023-05-29T14:05:50;24.90;80.70
7216;DHT22;3649;48.798;9.798;2023-05-29T14:08:17;25.00;82.30
7216;DHT22;3649;48.798;9.798;2023-05-29T14:10:44;24.70;82.60
7216;DHT22;3649;48.798;9.798;2023-05-29T14:13:11;24.90;82.30
7216;DHT22;3649;48.798;9.798;2023-05-29T14:15:38;24.90;82.60
7216;DHT22;3649;48.798;9.798;2023-05-29T14:18:06;25.00;83.60
7216;DHT22;3649;48.798;9.798;2023-05-29T14:20:35;25.00;82.30
7216;DHT22;3649;48.798;9.798;2023-05-29T14:23:02;25.10;81.70
7216;DHT22;3649;48.798;9.798;2023-05-29T14:25:29;25.10;80.50
7216;DHT22;3649;48.798;9.798;2023-05-29T14:27:56;25.10;80.80
7216;DHT22;3649;48.798;9.798;2023-05-29T14:30:23;25.10;81.30
7216;DHT22;3649;48.798;9.798;2023-05-29T14:32:50;25.10;82.00
7216;DHT22;3649;48.798;9.798;2023-05-29T14:35:17;25.00;82.80
7216;DHT22;3649;48.798;9.798;2023-05-29T14:37:44;25.10;81.80
7216;DHT22;3649;48.798;9.798;2023-05-29T14:40:11;25.10;81.40
7216;DHT22;3649;48.798;9.798;2023-05-29T14:42:38;25.10;81.80
7216;DHT22;3649;48.798;9.798;2023-05-29T14:45:05;25.10;80.90
7216;DHT22;3649;48.798;9.798;2023-05-29T14:47:32;25.10;80.70
7216;DHT22;3649;48.798;9.798;2023-05-29T14:49:59;25.20;80.50
7216;DHT22;3649;48.798;9.798;2023-05-29T14:52:26;25.30;80.70
7216;DHT22;3649;48.798;9.798;2023-05-29T14:54:53;25.30;80.60
7216;DHT22;3649;48.798;9.798;2023-05-29T14:57:20;25.40;81.00
7216;DHT22;3649;48.798;9.798;2023-05-29T14:59:47;25.30;80.50
7216;DHT22;3649;48.798;9.798;2023-05-29T15:02:14;25.40;81.30
7216;DHT22;3649;48.798;9.798;2023-05-29T15:04:41;25.40;81.80
7216;DHT22;3649;48.798;9.798;2023-05-29T15:07:08;25.30;81.20
7216;DHT22;3649;48.798;9.798;2023-05-29T15:09:35;25.30;81.90
7216;DHT22;3649;48.798;9.798;2023-05-29T15:12:03;25.20;82.10
7216;DHT22;3649;48.798;9.798;2023-05-29T15:14:30;25.30;81.80
7216;DHT22;3649;48.798;9.798;2023-05-29T15:16:57;25.20;81.20
7216;DHT22;3649;48.798;9.798;2023-05-29T15:19:24;25.30;80.90
7216;DHT22;3649;48.798;9.798;2023-05-29T15:21:50;25.30;81.10
7216;DHT22;3649;48.798;9.798;2023-05-29T15:24:18;25.40;81.80
7216;DHT22;3649;48.798;9.798;2023-05-29T15:26:45;25.30;80.20
7216;DHT22;3649;48.798;9.798;2023-05-29T15:29:11;25.40;80.20
7216;DHT22;3649;48.798;9.798;2023-05-29T15:31:38;25.40;80.90
7216;DHT22;3649;48.798;9.798;2023-05-29T15:34:05;25.50;81.70
7216;DHT22;3649;48.798;9.798;2023-05-29T15:36:32;25.40;82.50
7216;DHT22;3649;48.798;9.798;2023-05-29T15:38:59;25.40;81.30
7216;DHT22;3649;48.798;9.798;2023-05-29T15:41:26;25.30;80.70
7216;DHT22;3649;48.798;9.798;2023-05-29T15:43:55;25.30;80.70
7216;DHT22;3649;48.798;9.798;2023-05-29T15:46:27;25.30;80.20
7216;DHT22;3649;48.798;9.798;2023-05-29T15:48:55;25.30;81.80
7216;DHT22;3649;48.798;9.798;2023-05-29T15:51:22;25.20;81.20
7216;DHT22;3649;48.798;9.798;2023-05-29T15:53:49;25.20;81.50
7216;DHT22;3649;48.798;9.798;2023-05-29T15:56:16;25.10;80.00
7216;DHT22;3649;48.798;9.798;2023-05-29T15:58:43;25.30;80.70
7216;DHT22;3649;48.798;9.798;2023-05-29T16:01:10;25.40;80.20
7216;DHT22;3649;48.798;9.798;2023-05-29T16:03:37;25.40;81.70
7216;DHT22;3649;48.798;9.798;2023-05-29T16:06:04;25.40;79.60
7216;DHT22;3649;48.798;9.798;2023-05-29T16:08:31;25.30;80.10
7216;DHT22;3649;48.798;9.798;2023-05-29T16:10:58;25.30;80.10
7216;DHT22;3649;48.798;9.798;2023-05-29T16:13:26;25.30;79.60
7216;DHT22;3649;48.798;9.798;2023-05-29T16:15:53;25.30;80.10
7216;DHT22;3649;48.798;9.798;2023-05-29T16:18:20;25.20;79.40
7216;DHT22;3649;48.798;9.798;2023-05-29T16:20:48;25.20;80.60
7216;DHT22;3649;48.798;9.798;2023-05-29T16:23:17;25.20;79.70